Terminal Aerodrome Forecast
Issued by NWS

Current Version | Previous Version | Text Only | Print | Product List | Glossary On
Versions: 1 2 3 4 5 6 7 8 9 10 11 12 13 14 15 16 17 18
000
FTPA31 PHFO 251808 AAA
TAFHNY
TAF AMD
PHNY 251808Z 2518/2618 05016KT P6SM FEW025 BKN035
      TEMPO 2518/2522 BKN025
     FM252200 04018G27KT P6SM SCT025 SCT035
     FM260600 04011KT P6SM SCT025=

USA.gov is the U.S. government's official web portal to all federal, state and local government web resources and services.